Time;durP1;ratioP1;P1;durP2;ratioP2;P2;SDS_P1;SDS_P2;PMS_P1;PMS_P2;Temp;Humidity;BMP_temperature;BMP_pressure;BME280_temperature;BME280_humidity;BME280_pressure;Samples;Min_cycle;Max_cycle;Signal;HPM_P1;HPM_P2
2024/03/09 00:05:08;;;;;;;14.50;9.80;;;;;;;7.56;39.30;99655.33;108179;1253;72420;-62
2024/03/09 00:08:21;;;;;;;11.60;8.10;;;;;;;7.64;39.30;99655.27;108136;1252;59401;-63
2024/03/09 00:11:32;;;;;;;10.20;7.70;;;;;;;7.83;39.01;99650.86;108164;1253;59645;-61
2024/03/09 00:14:43;;;;;;;10.20;7.80;;;;;;;7.79;39.03;99651.31;108194;1254;73643;-62
2024/03/09 00:17:54;;;;;;;10.00;8.20;;;;;;;7.70;39.01;99653.18;108181;1253;70160;-62
2024/03/09 00:27:24;;;;;;;12.00;7.70;;;;;;;7.58;39.03;99652.34;108174;1252;59754;-62
2024/03/09 00:30:35;;;;;;;11.80;7.50;;;;;;;7.50;39.10;99647.14;108201;1254;73932;-61
2024/03/09 00:33:49;;;;;;;11.10;8.00;;;;;;;7.40;39.25;99657.36;108151;1253;69239;-61
2024/03/09 01:00:11;;;;;;;12.90;7.30;;;;;;;7.61;38.28;99640.89;104489;1266;59327;-62
2024/03/09 01:03:29;;;;;;;12.40;8.20;;;;;;;7.56;38.48;99641.92;104423;1265;60740;-62
2024/03/09 01:06:41;;;;;;;9.30;7.00;;;;;;;7.51;38.40;99645.73;103911;1269;70781;-61
2024/03/09 01:09:53;;;;;;;9.10;6.80;;;;;;;7.39;38.71;99648.35;103737;1270;69155;-62
2024/03/09 01:13:08;;;;;;;10.70;7.90;;;;;;;7.44;38.57;99648.02;103981;1272;71970;-61
2024/03/09 01:16:22;;;;;;;10.30;7.60;;;;;;;7.49;38.63;99649.09;103477;1272;59759;-61
2024/03/09 01:19:35;;;;;;;11.10;6.80;;;;;;;7.49;38.67;99645.61;103701;1270;60789;-61
2024/03/09 01:22:47;;;;;;;13.70;8.40;;;;;;;7.62;38.95;99648.17;105049;1266;72381;-62
2024/03/09 01:26:00;;;;;;;12.40;7.10;;;;;;;7.64;38.99;99644.79;104651;1265;70446;-62
2024/03/09 01:28:31;;;;;;;13.90;8.20;;;;;;;7.59;39.09;99647.41;104801;1265;71326;-61
2024/03/09 01:31:02;;;;;;;11.70;8.60;;;;;;;7.55;39.08;99653.10;104281;1266;59766;-61
2024/03/09 01:34:15;;;;;;;11.20;8.30;;;;;;;7.62;39.31;99652.02;104261;1266;59776;-60
2024/03/09 01:36:49;;;;;;;12.70;9.10;;;;;;;7.64;39.31;99646.20;104504;1263;73931;-62
2024/03/09 01:40:01;;;;;;;14.70;9.30;;;;;;;7.53;39.45;99646.70;105337;1257;70304;-61
2024/03/09 01:43:16;;;;;;;11.90;9.30;;;;;;;7.48;39.57;99643.02;104845;1259;72444;-62
2024/03/09 01:46:28;;;;;;;13.80;9.80;;;;;;;7.47;39.45;99643.92;104707;1257;59791;-63
2024/03/09 01:49:18;;;;;;;15.00;9.20;;;;;;;7.47;39.71;99644.27;106104;1257;59729;-63
2024/03/09 01:52:59;;;;;;;13.60;9.60;;;;;;;7.49;39.54;99638.79;101007;1297;602734;-62
2024/03/09 02:06:42;;;;;;;16.10;8.90;;;;;;;6.92;40.80;99643.94;104313;1266;295842;-62
2024/03/09 02:09:54;;;;;;;12.60;8.40;;;;;;;6.93;40.69;99644.95;105382;1266;74344;-61
2024/03/09 02:16:37;;;;;;;12.80;8.60;;;;;;;7.00;40.33;99641.42;105067;1265;59869;-62
2024/03/09 02:19:49;;;;;;;12.00;7.60;;;;;;;6.93;40.28;99643.23;104907;1265;72046;-62
2024/03/09 02:26:36;;;;;;;11.50;7.70;;;;;;;6.89;40.55;99645.75;103982;1264;75559;-62
2024/03/09 02:29:48;;;;;;;12.20;7.40;;;;;;;6.89;40.49;99647.14;104811;1260;59629;-63
2024/03/09 02:32:25;;;;;;;13.60;8.70;;;;;;;6.83;40.63;99645.23;104071;1265;60494;-62
2024/03/09 02:35:08;;;;;;;10.10;7.90;;;;;;;6.84;40.89;99643.29;105112;1259;72936;-63
2024/03/09 02:38:20;;;;;;;10.90;8.70;;;;;;;6.74;40.88;99643.38;104349;1259;70566;-61
2024/03/09 02:41:32;;;;;;;10.50;7.50;;;;;;;6.71;41.01;99644.33;105285;1259;72536;-62
2024/03/09 02:44:42;;;;;;;10.60;8.00;;;;;;;6.66;41.16;99644.98;104495;1259;60589;-61
2024/03/09 02:47:16;;;;;;;13.20;8.70;;;;;;;6.66;41.25;99644.99;104440;1261;59810;-61
2024/03/09 02:50:09;;;;;;;11.60;8.10;;;;;;;6.59;41.03;99646.73;104024;1260;73328;-61
2024/03/09 02:56:52;;;;;;;12.00;8.40;;;;;;;6.52;40.99;99649.38;104263;1257;72646;-61
2024/03/09 03:00:06;;;;;;;11.40;7.90;;;;;;;6.44;41.28;99647.66;104137;1259;60894;-62
2024/03/09 03:06:43;;;;;;;10.70;7.60;;;;;;;4.89;43.75;99632.17;105330;1259;74830;-61
2024/03/09 03:09:57;;;;;;;13.30;8.60;;;;;;;4.82;44.14;99648.64;104170;1259;69076;-62
2024/03/09 03:16:43;;;;;;;13.70;8.20;;;;;;;5.70;42.96;99642.10;104076;1260;60679;-61
2024/03/09 03:19:58;;;;;;;11.50;7.50;;;;;;;5.81;42.59;99643.58;105217;1259;60056;-62
2024/03/09 03:26:41;;;;;;;10.90;8.20;;;;;;;5.65;42.78;99645.16;104914;1258;69817;-61
2024/03/09 03:29:56;;;;;;;10.50;7.60;;;;;;;4.83;43.83;99648.27;104107;1260;72923;-62
2024/03/09 03:33:08;;;;;;;9.70;7.60;;;;;;;5.64;43.06;99645.37;107775;1256;61175;-63
2024/03/09 03:36:20;;;;;;;13.20;8.10;;;;;;;4.88;44.01;99646.27;107797;1257;60244;-62
2024/03/09 03:39:31;;;;;;;11.70;8.00;;;;;;;5.80;43.12;99643.09;107787;1256;72926;-62
2024/03/09 03:42:42;;;;;;;13.20;7.80;;;;;;;5.93;42.74;99643.14;107524;1256;69525;-62
2024/03/09 03:45:53;;;;;;;10.90;7.50;;;;;;;5.77;42.78;99636.20;107849;1256;73375;-62
2024/03/09 03:49:05;;;;;;;10.90;8.10;;;;;;;6.02;42.49;99637.92;107765;1256;59613;-62
2024/03/09 03:51:51;;;;;;;10.50;7.90;;;;;;;6.12;42.29;99635.56;107732;1256;60245;-65
2024/03/09 03:55:06;;;;;;;11.40;7.70;;;;;;;6.05;42.50;99636.27;107567;1256;73247;-62
2024/03/09 03:58:17;;;;;;;11.10;7.70;;;;;;;5.79;42.62;99642.42;107684;1257;69296;-61
2024/03/09 04:01:32;;;;;;;11.70;7.80;;;;;;;5.47;43.69;99643.67;107712;1256;73396;-61
2024/03/09 04:04:47;;;;;;;12.70;7.40;;;;;;;5.93;43.00;99637.08;107680;1257;59909;-61
2024/03/09 04:11:38;;;;;;;16.70;8.00;;;;;;;4.93;44.28;99636.45;107816;1256;73246;-61
2024/03/09 04:14:50;;;;;;;13.60;8.50;;;;;;;4.86;44.80;99637.80;107795;1256;69713;-61
2024/03/09 04:18:03;;;;;;;11.00;8.50;;;;;;;5.46;43.87;99638.47;107768;1256;72509;-63
2024/03/09 04:21:16;;;;;;;11.10;7.60;;;;;;;5.56;43.40;99641.91;107619;1257;59796;-61
2024/03/09 04:23:47;;;;;;;14.00;8.10;;;;;;;5.50;43.62;99640.13;107795;1255;59997;-61
2024/03/09 04:27:00;;;;;;;10.30;7.50;;;;;;;5.53;43.51;99641.98;107713;1257;72774;-61
2024/03/09 04:30:12;;;;;;;14.10;8.30;;;;;;;5.61;43.42;99644.73;107711;1257;70343;-61
2024/03/09 04:33:24;;;;;;;12.10;8.20;;;;;;;5.63;43.36;99647.13;107700;1257;73688;-61
2024/03/09 04:36:37;;;;;;;12.10;8.00;;;;;;;5.57;43.47;99650.06;107831;1256;60687;-61
2024/03/09 04:39:07;;;;;;;10.80;7.60;;;;;;;5.48;43.81;99654.25;107627;1257;60519;-61
2024/03/09 04:41:57;;;;;;;12.70;8.00;;;;;;;5.52;43.74;99654.69;107845;1256;72864;-61
2024/03/09 04:48:19;;;;;;;13.50;7.60;;;;;;;5.99;43.52;99658.73;107702;1256;72506;-61
2024/03/09 04:51:30;;;;;;;12.40;8.40;;;;;;;5.11;44.45;99662.48;107651;1257;61590;-61
2024/03/09 04:54:29;;;;;;;11.60;7.80;;;;;;;5.19;44.46;99663.03;107760;1255;59804;-61
2024/03/09 04:57:43;;;;;;;12.20;8.60;;;;;;;5.14;45.03;99671.98;107713;1256;74563;-61
2024/03/09 05:00:55;;;;;;;11.30;7.60;;;;;;;5.38;44.73;99674.80;107570;1259;69105;-61
2024/03/09 05:04:06;;;;;;;11.30;8.20;;;;;;;5.97;43.73;99675.77;107605;1258;72520;-61
2024/03/09 05:07:23;;;;;;;11.70;8.20;;;;;;;6.14;43.57;99675.04;107617;1257;60687;-61
2024/03/09 05:10:10;;;;;;;11.20;8.60;;;;;;;6.39;42.96;99675.46;107641;1258;58932;-61
2024/03/09 05:16:51;;;;;;;12.10;9.40;;;;;;;6.40;42.88;99683.28;107660;1258;69390;-61
2024/03/09 05:20:11;;;;;;;12.10;8.60;;;;;;;6.54;42.69;99686.58;107579;1257;72858;-62
2024/03/09 05:23:23;;;;;;;14.40;9.40;;;;;;;6.64;42.66;99691.90;107803;1256;60595;-61
2024/03/09 05:26:34;;;;;;;13.90;9.00;;;;;;;6.79;42.37;99695.16;107825;1256;58781;-62
2024/03/09 05:29:45;;;;;;;14.00;9.20;;;;;;;6.82;42.28;99695.61;107786;1257;73317;-62
2024/03/09 05:33:06;;;;;;;11.70;8.90;;;;;;;6.97;42.21;99701.65;107697;1257;70283;-62
2024/03/09 05:35:39;;;;;;;13.30;9.00;;;;;;;7.04;42.33;99696.23;107669;1257;72545;-62
2024/03/09 05:38:50;;;;;;;12.80;9.10;;;;;;;6.99;42.33;99701.59;107738;1256;60866;-62
2024/03/09 05:42:04;;;;;;;13.40;8.90;;;;;;;6.92;42.28;99702.85;107676;1256;61429;-61
2024/03/09 05:45:15;;;;;;;14.20;9.30;;;;;;;6.80;42.65;99705.23;107741;1255;72910;-62
2024/03/09 05:48:33;;;;;;;14.40;10.00;;;;;;;7.00;42.30;99707.66;107689;1256;69760;-62
2024/03/09 06:08:13;;;;;;;18.80;10.60;;;;;;;5.81;44.66;99737.88;103286;1267;60550;-64
2024/03/09 06:11:07;;;;;;;18.30;11.10;;;;;;;5.89;44.38;99738.40;103338;1273;70848;-63
2024/03/09 06:13:35;;;;;;;16.90;10.90;;;;;;;5.80;44.53;99739.98;99723;1266;5615625;-63
2024/03/09 06:16:47;;;;;;;15.30;10.90;;;;;;;5.82;44.42;99740.98;104066;1268;59273;-62
2024/03/09 06:20:02;;;;;;;15.10;10.40;;;;;;;5.82;44.84;99741.50;105057;1269;61213;-64
2024/03/09 06:26:08;;;;;;;16.10;10.30;;;;;;;7.79;40.48;99734.64;104853;1265;69753;-63
2024/03/09 06:29:20;;;;;;;17.70;11.20;;;;;;;6.85;42.49;99735.79;105010;1266;73357;-63
2024/03/09 06:32:32;;;;;;;15.90;10.20;;;;;;;6.98;42.65;99741.71;104503;1260;61341;-66
2024/03/09 06:35:44;;;;;;;15.00;10.60;;;;;;;7.00;43.00;99743.92;104053;1263;60134;-64
2024/03/09 06:38:58;;;;;;;17.30;11.20;;;;;;;7.60;42.40;99741.17;105477;1261;75885;-64
2024/03/09 06:41:57;;;;;;;15.80;10.90;;;;;;;7.13;42.97;99746.04;104492;1266;69050;-64
2024/03/09 06:44:32;;;;;;;22.10;11.40;;;;;;;7.14;43.15;99749.13;104034;1269;72983;-64
2024/03/09 06:46:59;;;;;;;16.90;11.00;;;;;;;7.30;43.14;99754.28;105237;1260;60901;-65
2024/03/09 06:57:10;;;;;;;17.30;11.60;;;;;;;8.32;41.56;99748.98;104811;1266;69334;-63
2024/03/09 07:00:25;;;;;;;23.10;11.30;;;;;;;8.53;41.43;99749.05;105420;1260;72925;-69
2024/03/09 07:10:39;;;;;;;20.80;11.70;;;;;;;8.95;40.90;99749.91;103963;1268;74674;-65
2024/03/09 07:13:51;;;;;;;22.00;11.40;;;;;;;9.17;40.76;99755.11;104468;1261;69151;-65
2024/03/09 07:17:04;;;;;;;18.00;10.90;;;;;;;9.38;40.19;99755.77;104028;1264;72389;-66
2024/03/09 07:20:23;;;;;;;15.50;11.00;;;;;;;9.31;40.77;99757.58;104258;1266;60654;-66
2024/03/09 07:23:36;;;;;;;16.70;11.40;;;;;;;9.56;40.61;99763.16;105241;1266;59753;-70
2024/03/09 07:26:11;;;;;;;22.60;12.70;;;;;;;9.44;40.62;99764.64;105265;1263;72355;-63
2024/03/09 07:29:25;;;;;;;22.10;13.40;;;;;;;9.54;40.58;99763.05;104516;1278;70205;-63
2024/03/09 07:32:43;;;;;;;22.70;12.10;;;;;;;9.70;40.30;99762.79;104851;1257;74931;-62
2024/03/09 07:53:17;;;;;;;26.10;12.40;;;;;;;10.64;39.52;99764.40;104648;1260;59965;-61
2024/03/09 07:56:07;;;;;;;18.20;11.70;;;;;;;10.73;39.32;99766.85;105111;1254;59768;-62
2024/03/09 07:58:41;;;;;;;20.30;11.50;;;;;;;10.95;39.05;99767.51;104715;1259;72942;-63
2024/03/09 08:04:43;;;;;;;13.90;10.30;;;;;;;11.67;37.97;99763.14;106931;1257;74028;-65
2024/03/09 08:07:30;;;;;;;20.40;12.20;;;;;;;11.64;38.03;99756.09;106527;1260;61540;-64
2024/03/09 08:17:44;;;;;;;20.60;11.00;;;;;;;11.76;38.07;99759.41;104293;1276;69416;-63
2024/03/09 08:20:58;;;;;;;14.80;10.30;;;;;;;11.92;38.00;99759.20;104870;1260;75253;-63
2024/03/09 08:24:12;;;;;;;21.40;10.20;;;;;;;11.98;37.74;99759.65;105005;1260;59800;-63
2024/03/09 08:27:24;;;;;;;18.20;10.10;;;;;;;12.08;37.80;99754.42;104789;1252;59868;-62
2024/03/09 08:30:31;;;;;;;13.50;8.10;;;;;;;12.32;37.35;99752.77;105026;1269;73261;-62
2024/03/09 08:33:43;;;;;;;13.20;7.30;;;;;;;12.37;37.36;99757.63;105065;1253;72049;-64
2024/03/09 08:36:54;;;;;;;13.90;7.90;;;;;;;12.42;37.19;99756.47;106151;1254;73400;-64
2024/03/09 08:39:25;;;;;;;13.10;7.40;;;;;;;12.50;37.21;99759.49;105004;1259;59759;-64
2024/03/09 08:42:41;;;;;;;11.60;8.00;;;;;;;12.44;37.05;99763.25;104392;1254;60160;-62
2024/03/09 08:45:55;;;;;;;13.30;8.00;;;;;;;12.58;37.14;99762.07;104841;1257;73238;-64
2024/03/09 08:48:24;;;;;;;13.50;7.30;;;;;;;12.70;36.92;99765.70;104692;1262;71544;-64
2024/03/09 08:51:07;;;;;;;13.60;7.40;;;;;;;12.80;36.78;99763.77;104128;1260;75098;-63
2024/03/09 08:54:19;;;;;;;10.90;7.60;;;;;;;12.91;36.35;99764.65;105928;1254;59689;-63
2024/03/09 08:57:34;;;;;;;13.70;8.00;;;;;;;13.23;35.96;99769.68;104323;1260;59778;-62
2024/03/09 09:04:17;;;;;;;11.70;7.50;;;;;;;12.86;36.49;99776.14;104667;1259;70119;-63
2024/03/09 09:07:30;;;;;;;9.90;7.40;;;;;;;13.04;36.17;99779.98;104524;1260;73045;-63
2024/03/09 09:10:01;;;;;;;14.60;8.50;;;;;;;13.26;35.81;99762.36;104769;1259;60423;-63
2024/03/09 09:16:06;;;;;;;13.70;8.10;;;;;;;13.59;35.48;99781.60;105251;1263;75249;-63
2024/03/09 09:19:18;;;;;;;12.50;7.40;;;;;;;13.61;35.46;99783.07;105405;1260;69758;-63
2024/03/09 09:22:33;;;;;;;8.20;6.40;;;;;;;13.76;35.16;99781.95;104854;1259;73343;-66
2024/03/09 09:25:48;;;;;;;11.60;7.50;;;;;;;13.63;34.97;99789.45;104802;1256;60418;-69
2024/03/09 09:29:03;;;;;;;13.50;7.40;;;;;;;13.62;35.18;99785.13;105473;1258;59849;-64
2024/03/09 09:32:05;;;;;;;13.60;8.50;;;;;;;13.71;35.23;99786.58;104839;1260;74711;-63
2024/03/09 09:42:19;;;;;;;13.30;8.70;;;;;;;13.78;35.15;99789.20;104896;1254;59825;-62
2024/03/09 09:44:51;;;;;;;14.70;8.90;;;;;;;13.93;35.03;99791.58;105685;1254;59852;-60
2024/03/09 09:55:06;;;;;;;11.70;8.00;;;;;;;14.23;34.70;99793.61;108117;1254;73151;-63
2024/03/09 09:57:52;;;;;;;16.80;8.50;;;;;;;14.23;34.46;99791.89;107872;1253;59005;-61
2024/03/09 10:01:03;;;;;;;14.90;9.00;;;;;;;14.18;34.54;99791.93;108134;1254;59719;-61
2024/03/09 10:03:50;;;;;;;11.80;7.70;;;;;;;14.38;34.61;99787.33;108037;1254;72209;-61
2024/03/09 10:07:04;;;;;;;16.90;7.70;;;;;;;14.59;34.50;99788.83;107818;1254;70498;-62
2024/03/09 10:38:18;;;;;;;11.80;6.50;;;;;;;15.47;32.53;99773.25;108016;1257;72777;-61
2024/03/09 10:41:29;;;;;;;11.40;6.20;;;;;;;15.55;32.30;99770.28;108074;1257;71617;-60
2024/03/09 10:54:44;;;;;;;9.30;5.20;;;;;;;15.53;31.70;99767.72;108010;1254;73227;-60
2024/03/09 10:57:37;;;;;;;7.80;5.70;;;;;;;15.66;31.52;99766.96;108035;1256;70126;-61
2024/03/09 11:00:49;;;;;;;12.70;6.90;;;;;;;15.72;31.60;99767.83;107985;1254;72444;-62
2024/03/09 11:04:04;;;;;;;10.70;6.60;;;;;;;15.79;31.40;99767.94;108012;1255;58798;-60
2024/03/09 11:07:15;;;;;;;9.70;6.30;;;;;;;15.82;31.47;99767.59;108006;1257;59864;-60
2024/03/09 11:09:49;;;;;;;9.80;6.20;;;;;;;15.90;31.32;99763.69;108187;1254;73336;-60
2024/03/09 11:13:06;;;;;;;10.70;6.40;;;;;;;15.94;31.21;99749.67;107714;1254;68827;-63
2024/03/09 11:15:37;;;;;;;10.60;5.10;;;;;;;16.06;31.11;99762.36;108003;1253;73226;-60
2024/03/09 11:18:48;;;;;;;15.00;6.40;;;;;;;16.10;30.92;99763.70;107839;1257;59215;-60
2024/03/09 11:28:55;;;;;;;11.40;5.20;;;;;;;16.25;30.75;99746.26;107987;1253;70213;-61
2024/03/09 11:32:11;;;;;;;5.50;3.90;;;;;;;16.21;30.24;99741.59;108074;1255;72762;-60
2024/03/09 11:35:18;;;;;;;4.20;2.90;;;;;;;16.15;29.93;99742.69;108032;1254;62034;-60
2024/03/09 11:38:30;;;;;;;6.50;3.10;;;;;;;16.09;29.61;99740.98;108006;1256;60576;-61
2024/03/09 11:41:42;;;;;;;4.20;3.00;;;;;;;15.87;29.53;99737.00;107996;1253;74699;-61
2024/03/09 11:44:22;;;;;;;5.30;3.00;;;;;;;15.93;29.61;99743.58;108078;1253;70926;-61
2024/03/09 11:46:59;;;;;;;4.50;3.60;;;;;;;16.09;29.82;99747.33;107781;1255;73015;-62
2024/03/09 11:49:33;;;;;;;11.10;3.30;;;;;;;16.18;29.55;99745.85;108019;1254;58995;-64
2024/03/09 11:52:07;;;;;;;6.40;3.70;;;;;;;16.24;29.44;99740.50;107894;1254;59810;-64
2024/03/09 11:58:48;;;;;;;4.20;3.70;;;;;;;14.97;30.61;99743.91;108088;1254;69535;-63
2024/03/09 12:01:16;;;;;;;5.90;3.60;;;;;;;15.96;29.43;99741.60;108036;1253;72889;-64
2024/03/09 12:04:27;;;;;;;5.00;3.80;;;;;;;16.16;29.03;99742.80;108034;1254;58999;-63
2024/03/09 12:07:39;;;;;;;8.50;4.00;;;;;;;16.10;28.88;99743.69;108188;1254;60760;-63
2024/03/09 12:10:57;;;;;;;5.20;3.60;;;;;;;16.06;28.66;99747.67;108206;1254;74286;-64
2024/03/09 12:14:09;;;;;;;6.50;3.60;;;;;;;15.94;28.57;99742.59;108174;1253;69037;-63
2024/03/09 12:17:21;;;;;;;6.10;3.30;;;;;;;16.06;28.85;99739.92;108187;1254;72786;-65
2024/03/09 12:20:32;;;;;;;9.20;4.30;;;;;;;16.22;28.99;99738.54;108163;1254;60137;-64
2024/03/09 12:27:10;;;;;;;6.20;3.90;;;;;;;16.30;28.88;99738.54;108234;1254;72542;-65
2024/03/09 12:30:24;;;;;;;5.90;4.00;;;;;;;16.25;28.67;99738.68;108103;1255;70412;-64
2024/03/09 12:33:37;;;;;;;8.00;4.70;;;;;;;16.25;28.53;99738.54;108223;1253;72524;-63
2024/03/09 12:36:07;;;;;;;5.40;4.10;;;;;;;16.18;28.78;99733.46;108032;1254;60149;-65
2024/03/09 12:39:21;;;;;;;6.70;4.10;;;;;;;16.23;28.78;99737.19;108153;1254;58926;-66
2024/03/09 12:41:53;;;;;;;6.60;4.10;;;;;;;16.45;28.67;99734.02;108049;1256;73621;-64
2024/03/09 12:45:05;;;;;;;4.80;4.30;;;;;;;16.49;28.57;99735.00;108205;1253;69524;-66
2024/03/09 12:55:30;;;;;;;8.70;4.70;;;;;;;15.64;29.58;99740.52;101547;1293;603457;-64
2024/03/09 12:58:45;;;;;;;7.10;3.70;;;;;;;16.80;27.79;99735.24;103955;1271;60495;-65
2024/03/09 13:01:57;;;;;;;7.10;4.50;;;;;;;16.96;27.72;99739.36;104537;1267;60716;-67
2024/03/09 13:05:14;;;;;;;5.40;4.10;;;;;;;16.97;27.58;99743.02;104320;1266;74001;-65
2024/03/09 13:07:52;;;;;;;;;;;;;;;17.05;27.57;99733.41;100026;1258;5469888;-65
2024/03/09 13:14:21;;;;;;;6.10;4.80;;;;;;;17.11;27.58;99736.89;104596;1259;59790;-63
2024/03/09 13:20:53;;;;;;;8.10;4.10;;;;;;;17.13;27.50;99739.39;104340;1261;68289;-64
2024/03/09 13:24:08;;;;;;;6.20;4.30;;;;;;;17.12;27.23;99733.84;104028;1263;72506;-64
2024/03/09 13:27:20;;;;;;;8.40;4.00;;;;;;;17.10;27.05;99736.62;104298;1260;60524;-63
2024/03/09 13:30:32;;;;;;;5.20;4.20;;;;;;;16.99;27.21;99731.72;104640;1270;60366;-64
2024/03/09 13:33:48;;;;;;;6.30;4.10;;;;;;;16.60;27.21;99731.79;104925;1257;73334;-67
2024/03/09 13:37:03;;;;;;;7.20;4.60;;;;;;;16.58;27.72;99734.95;105073;1254;68364;-63
2024/03/09 14:25:41;;;;;;;6.60;4.00;;;;;;;16.23;29.34;99744.63;108010;1254;75426;-64
2024/03/09 14:28:58;;;;;;;8.70;3.90;;;;;;;16.21;29.18;99742.30;108041;1254;69532;-64
2024/03/09 14:53:13;;;;;;;4.70;4.10;;;;;;;16.07;28.75;99727.48;108059;1253;59907;-64
2024/03/09 14:56:25;;;;;;;7.70;4.30;;;;;;;15.95;28.87;99725.58;108066;1253;59810;-60
2024/03/09 15:06:40;;;;;;;4.90;3.70;;;;;;;15.67;29.41;99728.16;108009;1256;73172;-63
2024/03/09 15:13:21;;;;;;;6.50;4.00;;;;;;;15.76;29.26;99728.39;108082;1254;59974;-66
2024/03/09 15:16:32;;;;;;;7.80;4.30;;;;;;;15.81;29.14;99722.73;108049;1253;75802;-60
2024/03/09 15:19:43;;;;;;;7.10;4.50;;;;;;;15.65;29.14;99726.42;108067;1253;69633;-60
2024/03/09 15:43:57;;;;;;;4.50;3.60;;;;;;;14.52;29.64;99732.61;108174;1254;59312;-64
2024/03/09 15:54:08;;;;;;;4.80;3.30;;;;;;;14.06;30.03;99738.69;108083;1253;71304;-64
2024/03/09 16:00:06;;;;;;;6.30;3.60;;;;;;;13.75;30.15;99739.36;107989;1254;59333;-63
2024/03/09 16:02:52;;;;;;;6.10;3.40;;;;;;;13.62;30.30;99740.73;108144;1253;59670;-63
2024/03/09 16:06:10;;;;;;;5.80;3.80;;;;;;;13.48;30.26;99741.66;108094;1254;73920;-63
2024/03/09 16:09:21;;;;;;;4.80;3.40;;;;;;;13.34;30.23;99744.70;108007;1253;70212;-61
2024/03/09 16:16:12;;;;;;;4.00;3.30;;;;;;;13.05;30.70;99750.02;108019;1253;61400;-66
2024/03/09 16:19:27;;;;;;;6.10;4.10;;;;;;;12.91;30.91;99754.27;108058;1253;60406;-67
2024/03/09 16:22:43;;;;;;;7.90;4.80;;;;;;;12.79;31.07;99755.38;108097;1253;72967;-63
2024/03/09 16:29:06;;;;;;;7.70;5.20;;;;;;;12.59;31.43;99760.05;108020;1253;72598;-64
2024/03/09 16:39:17;;;;;;;6.00;4.10;;;;;;;12.08;32.18;99764.27;108076;1253;73186;-63
2024/03/09 16:42:33;;;;;;;7.10;4.60;;;;;;;12.12;32.12;99766.36;108123;1253;68401;-63
2024/03/09 16:55:38;;;;;;;12.10;6.10;;;;;;;11.63;32.70;99763.16;108119;1253;73837;-62
2024/03/09 16:58:50;;;;;;;11.50;6.60;;;;;;;11.55;32.53;99768.23;108249;1253;69479;-64
2024/03/09 17:02:01;;;;;;;11.40;7.80;;;;;;;11.42;32.85;99768.64;108081;1253;72762;-65
2024/03/09 17:05:13;;;;;;;12.50;9.50;;;;;;;11.33;33.01;99768.89;108022;1253;58663;-63
2024/03/09 17:08:25;;;;;;;18.60;10.90;;;;;;;11.21;32.81;99771.48;108108;1253;59863;-63
2024/03/09 17:11:37;;;;;;;15.80;10.80;;;;;;;11.09;33.29;99773.41;108081;1253;73996;-63
2024/03/09 17:14:48;;;;;;;21.10;12.20;;;;;;;11.01;33.19;99773.77;108051;1253;70077;-63
2024/03/09 17:17:59;;;;;;;23.40;14.00;;;;;;;10.91;33.53;99773.31;108075;1253;73111;-65
2024/03/09 17:21:11;;;;;;;18.60;14.70;;;;;;;10.80;33.41;99777.27;108060;1253;59321;-64
2024/03/09 17:24:22;;;;;;;22.20;14.70;;;;;;;10.64;33.95;99776.68;108067;1253;62113;-64
2024/03/09 17:27:36;;;;;;;24.10;14.80;;;;;;;10.60;34.21;99783.54;108069;1253;73514;-64
2024/03/09 17:30:51;;;;;;;23.20;14.00;;;;;;;11.28;33.40;99778.19;108090;1255;68416;-62
2024/03/09 17:34:08;;;;;;;20.30;12.80;;;;;;;12.89;31.23;99767.55;108189;1254;73196;-65
2024/03/09 17:37:23;;;;;;;19.50;12.60;;;;;;;12.99;30.74;99750.32;108052;1253;58949;-65
2024/03/09 17:44:06;;;;;;;18.40;11.40;;;;;;;13.05;30.62;99770.98;108090;1253;75770;-63
2024/03/09 17:47:18;;;;;;;17.50;12.30;;;;;;;12.77;30.62;99772.89;108093;1253;70762;-63
2024/03/09 17:56:52;;;;;;;19.60;12.40;;;;;;;12.84;30.54;99777.84;108017;1253;60378;-63
2024/03/09 18:00:10;;;;;;;19.20;11.80;;;;;;;12.61;30.97;99775.27;108114;1253;72318;-64
2024/03/09 18:06:51;;;;;;;20.50;13.00;;;;;;;12.90;30.39;99770.17;108055;1256;72992;-63
2024/03/09 18:10:02;;;;;;;17.80;13.20;;;;;;;12.85;30.58;99770.93;108075;1253;59350;-63
2024/03/09 18:16:11;;;;;;;17.10;12.20;;;;;;;12.83;30.51;99766.46;108111;1253;73558;-62
2024/03/09 18:19:23;;;;;;;20.00;12.30;;;;;;;12.82;30.36;99764.05;108090;1253;69742;-63
2024/03/09 18:26:08;;;;;;;15.80;10.70;;;;;;;12.65;30.84;99764.71;108041;1253;58622;-63
2024/03/09 18:29:20;;;;;;;14.40;10.70;;;;;;;12.42;31.14;99766.86;108045;1255;60422;-62
2024/03/09 18:32:35;;;;;;;17.10;10.70;;;;;;;12.35;31.50;99765.97;108060;1253;74080;-62
2024/03/09 18:35:53;;;;;;;12.60;9.90;;;;;;;12.30;31.55;99765.73;107850;1253;70154;-62
2024/03/09 18:39:06;;;;;;;14.40;9.50;;;;;;;12.20;31.25;99767.95;108091;1253;72695;-62
2024/03/09 18:42:17;;;;;;;13.70;9.30;;;;;;;12.15;31.30;99773.42;108035;1253;58440;-63
2024/03/09 18:45:32;;;;;;;14.50;8.00;;;;;;;12.12;31.27;99773.23;107731;1253;59139;-63
2024/03/09 18:48:45;;;;;;;13.00;8.60;;;;;;;12.09;31.41;99774.77;108002;1253;74527;-63
2024/03/09 18:51:57;;;;;;;14.00;7.80;;;;;;;12.03;31.58;99775.07;108064;1253;69538;-64
2024/03/09 18:55:08;;;;;;;12.60;8.30;;;;;;;9.72;34.25;99784.25;108077;1253;72508;-62
2024/03/09 18:57:51;;;;;;;18.10;10.30;;;;;;;9.62;34.72;99782.52;108038;1253;60307;-60
2024/03/09 19:01:10;;;;;;;15.70;9.80;;;;;;;9.48;35.20;99780.05;108183;1253;59746;-61
2024/03/09 19:04:21;;;;;;;13.80;9.60;;;;;;;8.88;36.10;99776.02;108018;1253;74542;-61
2024/03/09 19:21:10;;;;;;;15.30;11.10;;;;;;;8.34;37.61;99784.73;108086;1253;76602;-60
2024/03/09 19:24:21;;;;;;;16.90;11.40;;;;;;;8.27;37.49;99784.59;108039;1253;70263;-61
2024/03/09 19:31:12;;;;;;;17.50;11.20;;;;;;;8.63;37.17;99779.88;108045;1256;59327;-61
2024/03/09 19:41:10;;;;;;;14.90;10.30;;;;;;;8.24;37.76;99782.34;108027;1253;69061;-61
2024/03/09 19:44:23;;;;;;;15.90;9.90;;;;;;;10.78;34.50;99774.70;108076;1253;72486;-61
2024/03/09 19:47:34;;;;;;;15.40;9.60;;;;;;;11.12;33.71;99773.30;108031;1256;59280;-61
2024/03/09 19:50:47;;;;;;;13.60;8.60;;;;;;;9.87;34.58;99772.78;108024;1253;59163;-62
2024/03/09 19:54:00;;;;;;;13.30;10.40;;;;;;;8.01;37.50;99786.61;108071;1253;73682;-62
2024/03/09 19:57:11;;;;;;;14.30;9.70;;;;;;;7.86;38.37;99784.04;108087;1253;71474;-63
2024/03/09 20:00:22;;;;;;;14.80;9.70;;;;;;;9.99;35.67;99778.70;108085;1254;71514;-63
2024/03/09 20:21:04;;;;;;;11.80;8.50;;;;;;;6.58;40.95;99774.95;108021;1256;59353;-64
2024/03/09 20:24:16;;;;;;;10.70;8.10;;;;;;;7.61;40.02;99774.41;108046;1254;60370;-64
2024/03/09 20:31:10;;;;;;;12.40;8.30;;;;;;;7.91;38.91;99777.13;107778;1253;69427;-63
2024/03/09 20:34:25;;;;;;;12.20;8.10;;;;;;;8.56;37.76;99768.16;108048;1253;72949;-63
2024/03/09 20:37:39;;;;;;;12.50;9.70;;;;;;;7.54;39.28;99769.30;108047;1253;60602;-63
2024/03/09 21:04:35;;;;;;;11.60;8.80;;;;;;;7.76;40.10;99759.42;108116;1253;69175;-64
2024/03/09 21:07:53;;;;;;;13.70;9.90;;;;;;;7.81;39.86;99759.30;108041;1253;73305;-64
2024/03/09 21:11:11;;;;;;;14.60;9.60;;;;;;;7.85;39.92;99757.59;107994;1256;59277;-65
2024/03/09 21:14:27;;;;;;;13.50;8.90;;;;;;;7.84;40.11;99755.17;107995;1253;59714;-64
2024/03/09 21:24:42;;;;;;;11.60;9.10;;;;;;;8.06;39.89;99745.09;108016;1253;72525;-65
2024/03/09 21:27:53;;;;;;;14.40;9.60;;;;;;;8.77;39.02;99748.60;108081;1253;58961;-65
2024/03/09 21:31:11;;;;;;;13.90;10.50;;;;;;;8.98;38.34;99749.09;108060;1253;58908;-65
2024/03/09 21:34:22;;;;;;;18.50;12.00;;;;;;;8.95;38.23;99748.87;108229;1253;73726;-65
2024/03/09 21:37:33;;;;;;;20.30;12.30;;;;;;;9.13;37.98;99749.48;108046;1253;68416;-65
2024/03/09 21:40:45;;;;;;;18.40;12.60;;;;;;;9.16;37.81;99750.23;108014;1253;72480;-65
2024/03/09 21:43:56;;;;;;;18.50;12.50;;;;;;;9.18;37.92;99748.23;107947;1255;59055;-64
2024/03/09 21:47:08;;;;;;;17.50;11.80;;;;;;;9.12;37.99;99744.06;107836;1253;60348;-65
2024/03/09 21:53:39;;;;;;;19.30;12.70;;;;;;;9.08;37.77;99746.66;108055;1253;68127;-65
2024/03/09 21:56:51;;;;;;;16.40;11.50;;;;;;;9.11;38.02;99742.70;108022;1253;73050;-64
2024/03/09 22:00:19;;;;;;;19.80;11.20;;;;;;;8.90;38.16;99742.89;108004;1255;59300;-65